sensor_id;sensor_type;location;lat;lon;timestamp;P1;durP1;ratioP1;P2;durP2;ratioP2
19535;SDS011;9913;51.168;4.124;2023-11-21T00:01:23;27.93;;;19.67;;
19535;SDS011;9913;51.168;4.124;2023-11-21T00:03:53;23.70;;;18.70;;
19535;SDS011;9913;51.168;4.124;2023-11-21T00:06:22;29.13;;;19.17;;
19535;SDS011;9913;51.168;4.124;2023-11-21T00:08:50;24.77;;;16.40;;
19535;SDS011;9913;51.168;4.124;2023-11-21T00:11:18;26.77;;;19.80;;
19535;SDS011;9913;51.168;4.124;2023-11-21T00:13:54;23.23;;;17.83;;
19535;SDS011;9913;51.168;4.124;2023-11-21T00:16:35;27.70;;;19.30;;
19535;SDS011;9913;51.168;4.124;2023-11-21T00:19:05;27.90;;;19.43;;
19535;SDS011;9913;51.168;4.124;2023-11-21T00:21:33;22.93;;;17.60;;
19535;SDS011;9913;51.168;4.124;2023-11-21T00:24:02;22.03;;;15.97;;
19535;SDS011;9913;51.168;4.124;2023-11-21T00:26:30;26.67;;;18.80;;
19535;SDS011;9913;51.168;4.124;2023-11-21T00:29:03;28.27;;;18.70;;
19535;SDS011;9913;51.168;4.124;2023-11-21T00:31:34;29.53;;;19.47;;
19535;SDS011;9913;51.168;4.124;2023-11-21T00:34:06;30.53;;;20.60;;
19535;SDS011;9913;51.168;4.124;2023-11-21T00:36:34;30.37;;;20.67;;
19535;SDS011;9913;51.168;4.124;2023-11-21T00:39:03;28.00;;;18.17;;
19535;SDS011;9913;51.168;4.124;2023-11-21T00:41:32;26.67;;;17.93;;
19535;SDS011;9913;51.168;4.124;2023-11-21T00:44:00;31.23;;;19.33;;
19535;SDS011;9913;51.168;4.124;2023-11-21T00:46:29;28.20;;;19.13;;
19535;SDS011;9913;51.168;4.124;2023-11-21T00:48:57;22.67;;;15.77;;
19535;SDS011;9913;51.168;4.124;2023-11-21T00:51:27;27.10;;;17.47;;
19535;SDS011;9913;51.168;4.124;2023-11-21T00:53:55;27.67;;;19.63;;
19535;SDS011;9913;51.168;4.124;2023-11-21T00:56:24;26.90;;;18.83;;
19535;SDS011;9913;51.168;4.124;2023-11-21T00:58:53;26.33;;;18.30;;
19535;SDS011;9913;51.168;4.124;2023-11-21T01:01:21;28.00;;;18.37;;
19535;SDS011;9913;51.168;4.124;2023-11-21T01:03:51;30.03;;;19.40;;
19535;SDS011;9913;51.168;4.124;2023-11-21T01:06:20;27.40;;;18.10;;
19535;SDS011;9913;51.168;4.124;2023-11-21T01:08:50;32.50;;;20.40;;
19535;SDS011;9913;51.168;4.124;2023-11-21T01:11:18;23.10;;;15.97;;
19535;SDS011;9913;51.168;4.124;2023-11-21T01:13:47;31.97;;;18.23;;
19535;SDS011;9913;51.168;4.124;2023-11-21T01:16:15;33.27;;;19.63;;
19535;SDS011;9913;51.168;4.124;2023-11-21T01:18:44;34.17;;;20.77;;
19535;SDS011;9913;51.168;4.124;2023-11-21T01:21:12;23.40;;;16.23;;
19535;SDS011;9913;51.168;4.124;2023-11-21T01:23:40;27.63;;;16.73;;
19535;SDS011;9913;51.168;4.124;2023-11-21T01:26:10;26.50;;;16.73;;
19535;SDS011;9913;51.168;4.124;2023-11-21T01:28:39;24.73;;;17.90;;
19535;SDS011;9913;51.168;4.124;2023-11-21T01:31:07;27.83;;;17.80;;
19535;SDS011;9913;51.168;4.124;2023-11-21T01:33:36;25.03;;;15.70;;
19535;SDS011;9913;51.168;4.124;2023-11-21T01:36:04;24.57;;;16.13;;
19535;SDS011;9913;51.168;4.124;2023-11-21T01:38:33;22.87;;;16.10;;
19535;SDS011;9913;51.168;4.124;2023-11-21T01:41:01;31.03;;;19.70;;
19535;SDS011;9913;51.168;4.124;2023-11-21T01:43:31;25.83;;;15.87;;
19535;SDS011;9913;51.168;4.124;2023-11-21T01:45:59;26.70;;;15.97;;
19535;SDS011;9913;51.168;4.124;2023-11-21T01:48:28;28.40;;;18.53;;
19535;SDS011;9913;51.168;4.124;2023-11-21T01:50:56;30.30;;;17.97;;
19535;SDS011;9913;51.168;4.124;2023-11-21T01:53:25;27.00;;;16.47;;
19535;SDS011;9913;51.168;4.124;2023-11-21T01:55:55;25.97;;;17.33;;
19535;SDS011;9913;51.168;4.124;2023-11-21T01:58:25;23.97;;;16.17;;
19535;SDS011;9913;51.168;4.124;2023-11-21T02:00:55;23.87;;;16.50;;
19535;SDS011;9913;51.168;4.124;2023-11-21T02:03:23;30.17;;;19.73;;
19535;SDS011;9913;51.168;4.124;2023-11-21T02:05:53;27.43;;;18.13;;
19535;SDS011;9913;51.168;4.124;2023-11-21T02:08:21;25.13;;;18.47;;
19535;SDS011;9913;51.168;4.124;2023-11-21T02:10:50;26.60;;;18.67;;
19535;SDS011;9913;51.168;4.124;2023-11-21T02:13:18;27.13;;;17.43;;
19535;SDS011;9913;51.168;4.124;2023-11-21T02:15:47;23.73;;;15.23;;
19535;SDS011;9913;51.168;4.124;2023-11-21T02:18:17;29.17;;;18.73;;
19535;SDS011;9913;51.168;4.124;2023-11-21T02:20:46;25.97;;;18.73;;
19535;SDS011;9913;51.168;4.124;2023-11-21T02:23:16;25.30;;;16.27;;
19535;SDS011;9913;51.168;4.124;2023-11-21T02:25:44;24.37;;;15.00;;
19535;SDS011;9913;51.168;4.124;2023-11-21T02:28:15;27.93;;;18.70;;
19535;SDS011;9913;51.168;4.124;2023-11-21T02:30:52;27.17;;;18.80;;
19535;SDS011;9913;51.168;4.124;2023-11-21T02:33:22;22.67;;;16.07;;
19535;SDS011;9913;51.168;4.124;2023-11-21T02:35:51;31.70;;;21.20;;
19535;SDS011;9913;51.168;4.124;2023-11-21T02:38:23;27.30;;;18.83;;
19535;SDS011;9913;51.168;4.124;2023-11-21T02:40:51;21.37;;;14.70;;
19535;SDS011;9913;51.168;4.124;2023-11-21T02:43:20;20.73;;;15.20;;
19535;SDS011;9913;51.168;4.124;2023-11-21T02:45:48;29.80;;;19.57;;
19535;SDS011;9913;51.168;4.124;2023-11-21T02:48:16;27.77;;;19.17;;
19535;SDS011;9913;51.168;4.124;2023-11-21T02:50:45;25.43;;;17.63;;
19535;SDS011;9913;51.168;4.124;2023-11-21T02:53:13;30.47;;;19.80;;
19535;SDS011;9913;51.168;4.124;2023-11-21T02:55:43;27.57;;;19.43;;
19535;SDS011;9913;51.168;4.124;2023-11-21T02:58:11;23.37;;;16.77;;
19535;SDS011;9913;51.168;4.124;2023-11-21T03:00:40;27.23;;;19.83;;
19535;SDS011;9913;51.168;4.124;2023-11-21T03:03:08;28.87;;;17.90;;
19535;SDS011;9913;51.168;4.124;2023-11-21T03:05:37;28.30;;;18.97;;
19535;SDS011;9913;51.168;4.124;2023-11-21T03:08:06;28.23;;;18.17;;
19535;SDS011;9913;51.168;4.124;2023-11-21T03:10:35;26.47;;;18.60;;
19535;SDS011;9913;51.168;4.124;2023-11-21T03:13:04;29.40;;;19.57;;
19535;SDS011;9913;51.168;4.124;2023-11-21T03:15:32;27.43;;;18.13;;
19535;SDS011;9913;51.168;4.124;2023-11-21T03:18:03;28.50;;;17.77;;
19535;SDS011;9913;51.168;4.124;2023-11-21T03:20:31;29.93;;;19.60;;
19535;SDS011;9913;51.168;4.124;2023-11-21T03:23:01;33.00;;;21.60;;
19535;SDS011;9913;51.168;4.124;2023-11-21T03:25:30;31.43;;;19.83;;
19535;SDS011;9913;51.168;4.124;2023-11-21T03:27:58;29.20;;;18.67;;
19535;SDS011;9913;51.168;4.124;2023-11-21T03:30:28;29.77;;;20.30;;
19535;SDS011;9913;51.168;4.124;2023-11-21T03:32:57;31.33;;;20.63;;
19535;SDS011;9913;51.168;4.124;2023-11-21T03:35:25;29.43;;;17.80;;
19535;SDS011;9913;51.168;4.124;2023-11-21T03:37:54;30.57;;;21.30;;
19535;SDS011;9913;51.168;4.124;2023-11-21T03:40:23;27.80;;;19.23;;
19535;SDS011;9913;51.168;4.124;2023-11-21T03:42:51;26.93;;;18.77;;
19535;SDS011;9913;51.168;4.124;2023-11-21T03:45:20;27.73;;;19.50;;
19535;SDS011;9913;51.168;4.124;2023-11-21T03:47:49;32.23;;;20.83;;
19535;SDS011;9913;51.168;4.124;2023-11-21T03:50:18;32.97;;;20.27;;
19535;SDS011;9913;51.168;4.124;2023-11-21T03:52:46;28.83;;;20.77;;
19535;SDS011;9913;51.168;4.124;2023-11-21T03:55:14;32.90;;;21.90;;
19535;SDS011;9913;51.168;4.124;2023-11-21T03:57:43;34.13;;;22.10;;
19535;SDS011;9913;51.168;4.124;2023-11-21T04:00:12;28.97;;;18.93;;
19535;SDS011;9913;51.168;4.124;2023-11-21T04:02:41;31.97;;;19.67;;
19535;SDS011;9913;51.168;4.124;2023-11-21T04:05:10;23.83;;;17.10;;
19535;SDS011;9913;51.168;4.124;2023-11-21T04:07:39;31.83;;;22.27;;
19535;SDS011;9913;51.168;4.124;2023-11-21T04:10:07;25.90;;;17.50;;
19535;SDS011;9913;51.168;4.124;2023-11-21T04:12:39;27.43;;;20.40;;
19535;SDS011;9913;51.168;4.124;2023-11-21T04:15:08;27.90;;;17.87;;
19535;SDS011;9913;51.168;4.124;2023-11-21T04:17:37;31.00;;;21.33;;
19535;SDS011;9913;51.168;4.124;2023-11-21T04:20:06;27.60;;;18.13;;
19535;SDS011;9913;51.168;4.124;2023-11-21T04:22:38;32.97;;;21.90;;
19535;SDS011;9913;51.168;4.124;2023-11-21T04:25:11;30.77;;;21.07;;
19535;SDS011;9913;51.168;4.124;2023-11-21T04:27:42;27.63;;;20.53;;
19535;SDS011;9913;51.168;4.124;2023-11-21T04:30:11;33.97;;;22.03;;
19535;SDS011;9913;51.168;4.124;2023-11-21T04:32:41;36.37;;;23.30;;
19535;SDS011;9913;51.168;4.124;2023-11-21T04:35:09;28.93;;;21.73;;
19535;SDS011;9913;51.168;4.124;2023-11-21T04:37:39;35.50;;;23.20;;
19535;SDS011;9913;51.168;4.124;2023-11-21T04:40:08;32.53;;;21.93;;
19535;SDS011;9913;51.168;4.124;2023-11-21T04:42:37;31.43;;;21.27;;
19535;SDS011;9913;51.168;4.124;2023-11-21T04:45:05;25.53;;;16.07;;
19535;SDS011;9913;51.168;4.124;2023-11-21T04:47:38;26.57;;;19.10;;
19535;SDS011;9913;51.168;4.124;2023-11-21T04:50:06;28.53;;;21.13;;
19535;SDS011;9913;51.168;4.124;2023-11-21T04:52:35;23.47;;;18.13;;
19535;SDS011;9913;51.168;4.124;2023-11-21T04:55:05;21.73;;;16.43;;
19535;SDS011;9913;51.168;4.124;2023-11-21T04:57:37;29.27;;;18.63;;
19535;SDS011;9913;51.168;4.124;2023-11-21T05:00:06;27.40;;;21.03;;
19535;SDS011;9913;51.168;4.124;2023-11-21T05:02:35;24.93;;;19.50;;
19535;SDS011;9913;51.168;4.124;2023-11-21T05:05:05;29.07;;;19.13;;
19535;SDS011;9913;51.168;4.124;2023-11-21T05:07:34;32.13;;;21.83;;
19535;SDS011;9913;51.168;4.124;2023-11-21T05:10:05;36.40;;;24.20;;
19535;SDS011;9913;51.168;4.124;2023-11-21T05:12:37;34.50;;;23.23;;
19535;SDS011;9913;51.168;4.124;2023-11-21T05:15:07;28.90;;;20.07;;
19535;SDS011;9913;51.168;4.124;2023-11-21T05:17:38;29.23;;;20.83;;
19535;SDS011;9913;51.168;4.124;2023-11-21T05:20:08;30.27;;;20.60;;
19535;SDS011;9913;51.168;4.124;2023-11-21T05:22:38;29.77;;;20.37;;
19535;SDS011;9913;51.168;4.124;2023-11-21T05:25:09;30.97;;;22.67;;
19535;SDS011;9913;51.168;4.124;2023-11-21T05:27:38;31.60;;;23.60;;
19535;SDS011;9913;51.168;4.124;2023-11-21T05:30:06;34.87;;;24.43;;
19535;SDS011;9913;51.168;4.124;2023-11-21T05:32:38;35.17;;;23.77;;
19535;SDS011;9913;51.168;4.124;2023-11-21T05:35:09;33.73;;;22.17;;
19535;SDS011;9913;51.168;4.124;2023-11-21T05:37:42;34.80;;;23.10;;
19535;SDS011;9913;51.168;4.124;2023-11-21T05:40:12;30.57;;;23.57;;
19535;SDS011;9913;51.168;4.124;2023-11-21T05:42:40;32.13;;;22.83;;
19535;SDS011;9913;51.168;4.124;2023-11-21T05:45:09;27.53;;;20.33;;
19535;SDS011;9913;51.168;4.124;2023-11-21T05:47:39;33.10;;;22.67;;
19535;SDS011;9913;51.168;4.124;2023-11-21T05:50:09;31.40;;;22.67;;
19535;SDS011;9913;51.168;4.124;2023-11-21T05:52:41;28.93;;;20.40;;
19535;SDS011;9913;51.168;4.124;2023-11-21T05:55:12;36.33;;;24.33;;
19535;SDS011;9913;51.168;4.124;2023-11-21T05:57:41;31.80;;;22.53;;
19535;SDS011;9913;51.168;4.124;2023-11-21T06:00:11;32.43;;;22.00;;
19535;SDS011;9913;51.168;4.124;2023-11-21T06:02:42;36.13;;;23.73;;
19535;SDS011;9913;51.168;4.124;2023-11-21T06:05:10;33.13;;;21.80;;
19535;SDS011;9913;51.168;4.124;2023-11-21T06:07:38;29.23;;;19.57;;
19535;SDS011;9913;51.168;4.124;2023-11-21T06:10:08;27.17;;;19.53;;
19535;SDS011;9913;51.168;4.124;2023-11-21T06:12:39;30.83;;;21.13;;
19535;SDS011;9913;51.168;4.124;2023-11-21T06:15:10;35.73;;;24.63;;
19535;SDS011;9913;51.168;4.124;2023-11-21T06:17:41;33.53;;;23.40;;
19535;SDS011;9913;51.168;4.124;2023-11-21T06:20:11;25.00;;;18.77;;
19535;SDS011;9913;51.168;4.124;2023-11-21T06:22:42;27.57;;;20.10;;
19535;SDS011;9913;51.168;4.124;2023-11-21T06:25:11;32.77;;;21.73;;
19535;SDS011;9913;51.168;4.124;2023-11-21T06:27:43;31.13;;;21.70;;
19535;SDS011;9913;51.168;4.124;2023-11-21T06:30:12;32.93;;;22.90;;
19535;SDS011;9913;51.168;4.124;2023-11-21T06:32:42;30.47;;;20.67;;
19535;SDS011;9913;51.168;4.124;2023-11-21T06:35:13;26.53;;;17.50;;
19535;SDS011;9913;51.168;4.124;2023-11-21T06:37:43;32.83;;;21.57;;
19535;SDS011;9913;51.168;4.124;2023-11-21T06:40:16;33.37;;;22.13;;
19535;SDS011;9913;51.168;4.124;2023-11-21T06:42:48;32.27;;;19.73;;
19535;SDS011;9913;51.168;4.124;2023-11-21T06:45:18;25.13;;;18.00;;
19535;SDS011;9913;51.168;4.124;2023-11-21T06:47:47;31.87;;;21.93;;
19535;SDS011;9913;51.168;4.124;2023-11-21T06:50:16;31.20;;;20.13;;
19535;SDS011;9913;51.168;4.124;2023-11-21T06:52:47;30.80;;;20.73;;
19535;SDS011;9913;51.168;4.124;2023-11-21T06:55:15;24.87;;;17.37;;
19535;SDS011;9913;51.168;4.124;2023-11-21T06:57:43;30.70;;;21.33;;
19535;SDS011;9913;51.168;4.124;2023-11-21T07:00:15;22.03;;;15.93;;
19535;SDS011;9913;51.168;4.124;2023-11-21T07:02:45;31.90;;;20.70;;
19535;SDS011;9913;51.168;4.124;2023-11-21T07:05:14;28.73;;;20.07;;
19535;SDS011;9913;51.168;4.124;2023-11-21T07:07:47;27.03;;;17.27;;
19535;SDS011;9913;51.168;4.124;2023-11-21T07:10:16;24.20;;;15.43;;
19535;SDS011;9913;51.168;4.124;2023-11-21T07:12:44;26.50;;;17.23;;
19535;SDS011;9913;51.168;4.124;2023-11-21T07:15:14;32.50;;;20.13;;
19535;SDS011;9913;51.168;4.124;2023-11-21T07:17:42;25.97;;;17.00;;
19535;SDS011;9913;51.168;4.124;2023-11-21T07:20:11;25.13;;;15.90;;
19535;SDS011;9913;51.168;4.124;2023-11-21T07:22:40;24.70;;;17.63;;
19535;SDS011;9913;51.168;4.124;2023-11-21T07:25:08;28.37;;;18.13;;
19535;SDS011;9913;51.168;4.124;2023-11-21T07:27:37;28.13;;;19.13;;
19535;SDS011;9913;51.168;4.124;2023-11-21T07:30:06;33.27;;;19.53;;
19535;SDS011;9913;51.168;4.124;2023-11-21T07:32:38;25.97;;;18.07;;
19535;SDS011;9913;51.168;4.124;2023-11-21T07:35:08;31.37;;;19.57;;
19535;SDS011;9913;51.168;4.124;2023-11-21T07:37:37;32.80;;;21.50;;
19535;SDS011;9913;51.168;4.124;2023-11-21T07:40:06;25.10;;;17.43;;
19535;SDS011;9913;51.168;4.124;2023-11-21T07:42:36;34.00;;;20.40;;
19535;SDS011;9913;51.168;4.124;2023-11-21T07:45:05;35.80;;;19.23;;
19535;SDS011;9913;51.168;4.124;2023-11-21T07:47:34;34.50;;;19.90;;
19535;SDS011;9913;51.168;4.124;2023-11-21T07:50:05;29.97;;;16.97;;
19535;SDS011;9913;51.168;4.124;2023-11-21T07:52:35;33.00;;;20.10;;
19535;SDS011;9913;51.168;4.124;2023-11-21T07:55:03;35.07;;;21.80;;
19535;SDS011;9913;51.168;4.124;2023-11-21T07:57:32;32.87;;;19.83;;
19535;SDS011;9913;51.168;4.124;2023-11-21T08:00:00;34.77;;;20.90;;
19535;SDS011;9913;51.168;4.124;2023-11-21T08:02:38;35.37;;;21.27;;
19535;SDS011;9913;51.168;4.124;2023-11-21T08:05:10;30.13;;;19.07;;
19535;SDS011;9913;51.168;4.124;2023-11-21T08:07:50;27.57;;;16.30;;
19535;SDS011;9913;51.168;4.124;2023-11-21T08:10:19;28.53;;;17.50;;
19535;SDS011;9913;51.168;4.124;2023-11-21T08:12:48;22.70;;;15.97;;
19535;SDS011;9913;51.168;4.124;2023-11-21T08:15:18;25.27;;;15.70;;
19535;SDS011;9913;51.168;4.124;2023-11-21T08:17:46;28.93;;;16.40;;
19535;SDS011;9913;51.168;4.124;2023-11-21T08:20:16;29.03;;;17.50;;
19535;SDS011;9913;51.168;4.124;2023-11-21T08:22:45;26.10;;;14.97;;
19535;SDS011;9913;51.168;4.124;2023-11-21T08:25:15;28.10;;;17.00;;
19535;SDS011;9913;51.168;4.124;2023-11-21T08:27:46;22.03;;;13.13;;
19535;SDS011;9913;51.168;4.124;2023-11-21T08:30:15;21.33;;;14.83;;
19535;SDS011;9913;51.168;4.124;2023-11-21T08:32:46;19.67;;;12.93;;
19535;SDS011;9913;51.168;4.124;2023-11-21T08:35:16;19.73;;;12.00;;
19535;SDS011;9913;51.168;4.124;2023-11-21T08:37:44;19.67;;;12.53;;
19535;SDS011;9913;51.168;4.124;2023-11-21T08:40:13;15.40;;;11.63;;
19535;SDS011;9913;51.168;4.124;2023-11-21T08:42:44;24.00;;;14.97;;
19535;SDS011;9913;51.168;4.124;2023-11-21T08:45:13;22.50;;;14.67;;
19535;SDS011;9913;51.168;4.124;2023-11-21T08:47:41;23.47;;;15.63;;
19535;SDS011;9913;51.168;4.124;2023-11-21T08:50:11;27.57;;;15.43;;
19535;SDS011;9913;51.168;4.124;2023-11-21T08:52:41;20.23;;;14.07;;
19535;SDS011;9913;51.168;4.124;2023-11-21T08:55:10;31.70;;;17.77;;
19535;SDS011;9913;51.168;4.124;2023-11-21T08:57:39;20.77;;;13.57;;
19535;SDS011;9913;51.168;4.124;2023-11-21T09:00:09;23.03;;;13.83;;
19535;SDS011;9913;51.168;4.124;2023-11-21T09:02:38;18.77;;;11.10;;
19535;SDS011;9913;51.168;4.124;2023-11-21T09:05:08;21.23;;;12.83;;
19535;SDS011;9913;51.168;4.124;2023-11-21T09:07:38;21.37;;;12.40;;
19535;SDS011;9913;51.168;4.124;2023-11-21T09:10:09;23.53;;;12.87;;
19535;SDS011;9913;51.168;4.124;2023-11-21T09:12:37;17.07;;;10.83;;
19535;SDS011;9913;51.168;4.124;2023-11-21T09:15:06;18.77;;;10.67;;
19535;SDS011;9913;51.168;4.124;2023-11-21T09:17:37;24.07;;;12.07;;
19535;SDS011;9913;51.168;4.124;2023-11-21T09:20:07;17.60;;;10.83;;
19535;SDS011;9913;51.168;4.124;2023-11-21T09:22:37;20.87;;;12.17;;
19535;SDS011;9913;51.168;4.124;2023-11-21T09:25:05;19.73;;;13.13;;
19535;SDS011;9913;51.168;4.124;2023-11-21T09:27:36;13.47;;;9.30;;
19535;SDS011;9913;51.168;4.124;2023-11-21T09:30:05;18.07;;;12.57;;
19535;SDS011;9913;51.168;4.124;2023-11-21T09:32:37;19.17;;;12.63;;
19535;SDS011;9913;51.168;4.124;2023-11-21T09:35:07;17.17;;;10.80;;
19535;SDS011;9913;51.168;4.124;2023-11-21T09:37:36;16.07;;;10.57;;
19535;SDS011;9913;51.168;4.124;2023-11-21T09:40:08;13.53;;;8.47;;
19535;SDS011;9913;51.168;4.124;2023-11-21T09:42:43;18.40;;;11.57;;
19535;SDS011;9913;51.168;4.124;2023-11-21T09:45:17;18.17;;;10.53;;
19535;SDS011;9913;51.168;4.124;2023-11-21T09:47:50;17.97;;;11.27;;
19535;SDS011;9913;51.168;4.124;2023-11-21T09:50:20;18.90;;;11.67;;
19535;SDS011;9913;51.168;4.124;2023-11-21T09:52:51;16.57;;;10.13;;
19535;SDS011;9913;51.168;4.124;2023-11-21T09:55:25;19.70;;;10.63;;
19535;SDS011;9913;51.168;4.124;2023-11-21T09:57:57;16.83;;;9.90;;
19535;SDS011;9913;51.168;4.124;2023-11-21T10:00:27;15.37;;;8.83;;
19535;SDS011;9913;51.168;4.124;2023-11-21T10:02:58;13.37;;;9.40;;
19535;SDS011;9913;51.168;4.124;2023-11-21T10:05:28;12.07;;;6.60;;
19535;SDS011;9913;51.168;4.124;2023-11-21T10:08:01;16.30;;;7.67;;
19535;SDS011;9913;51.168;4.124;2023-11-21T10:10:33;14.47;;;8.20;;
19535;SDS011;9913;51.168;4.124;2023-11-21T10:13:04;14.47;;;7.73;;
19535;SDS011;9913;51.168;4.124;2023-11-21T10:15:35;10.20;;;6.63;;
19535;SDS011;9913;51.168;4.124;2023-11-21T10:18:03;11.43;;;6.07;;
19535;SDS011;9913;51.168;4.124;2023-11-21T10:20:33;11.63;;;6.30;;
19535;SDS011;9913;51.168;4.124;2023-11-21T10:23:04;9.93;;;5.10;;
19535;SDS011;9913;51.168;4.124;2023-11-21T10:25:34;9.33;;;4.40;;
19535;SDS011;9913;51.168;4.124;2023-11-21T10:28:05;9.90;;;4.77;;
19535;SDS011;9913;51.168;4.124;2023-11-21T10:30:34;11.17;;;4.60;;
19535;SDS011;9913;51.168;4.124;2023-11-21T10:33:04;8.23;;;4.57;;
19535;SDS011;9913;51.168;4.124;2023-11-21T10:35:38;10.47;;;4.27;;
19535;SDS011;9913;51.168;4.124;2023-11-21T10:38:13;9.83;;;4.20;;
19535;SDS011;9913;51.168;4.124;2023-11-21T10:40:42;10.93;;;4.00;;
19535;SDS011;9913;51.168;4.124;2023-11-21T10:43:14;9.67;;;4.17;;
19535;SDS011;9913;51.168;4.124;2023-11-21T10:45:43;8.97;;;3.87;;
19535;SDS011;9913;51.168;4.124;2023-11-21T10:48:12;11.60;;;4.40;;
19535;SDS011;9913;51.168;4.124;2023-11-21T10:50:43;8.93;;;3.40;;
19535;SDS011;9913;51.168;4.124;2023-11-21T10:53:12;8.03;;;3.90;;
19535;SDS011;9913;51.168;4.124;2023-11-21T10:55:42;10.80;;;4.20;;
19535;SDS011;9913;51.168;4.124;2023-11-21T10:58:13;9.60;;;3.93;;
19535;SDS011;9913;51.168;4.124;2023-11-21T11:00:43;10.43;;;4.00;;
19535;SDS011;9913;51.168;4.124;2023-11-21T11:03:13;8.80;;;3.67;;
19535;SDS011;9913;51.168;4.124;2023-11-21T11:05:43;7.70;;;3.60;;
19535;SDS011;9913;51.168;4.124;2023-11-21T11:08:20;6.27;;;2.70;;
19535;SDS011;9913;51.168;4.124;2023-11-21T11:10:54;10.23;;;3.40;;
19535;SDS011;9913;51.168;4.124;2023-11-21T11:13:26;6.50;;;3.10;;
19535;SDS011;9913;51.168;4.124;2023-11-21T11:15:56;9.13;;;3.23;;
19535;SDS011;9913;51.168;4.124;2023-11-21T11:18:27;7.87;;;2.97;;
19535;SDS011;9913;51.168;4.124;2023-11-21T11:20:57;7.50;;;3.43;;
19535;SDS011;9913;51.168;4.124;2023-11-21T11:23:40;6.23;;;3.33;;
19535;SDS011;9913;51.168;4.124;2023-11-21T11:26:20;8.70;;;3.20;;
19535;SDS011;9913;51.168;4.124;2023-11-21T11:29:14;9.13;;;3.80;;
19535;SDS011;9913;51.168;4.124;2023-11-21T11:31:55;6.97;;;3.50;;
19535;SDS011;9913;51.168;4.124;2023-11-21T11:34:32;9.70;;;3.73;;
19535;SDS011;9913;51.168;4.124;2023-11-21T11:37:06;10.13;;;3.80;;
19535;SDS011;9913;51.168;4.124;2023-11-21T11:39:36;7.80;;;3.77;;
19535;SDS011;9913;51.168;4.124;2023-11-21T11:42:06;7.77;;;4.13;;
19535;SDS011;9913;51.168;4.124;2023-11-21T11:44:52;6.70;;;4.37;;
19535;SDS011;9913;51.168;4.124;2023-11-21T11:47:23;7.30;;;3.83;;
19535;SDS011;9913;51.168;4.124;2023-11-21T11:50:02;9.10;;;4.20;;
19535;SDS011;9913;51.168;4.124;2023-11-21T11:52:35;8.17;;;4.30;;
19535;SDS011;9913;51.168;4.124;2023-11-21T11:55:06;9.53;;;3.97;;
19535;SDS011;9913;51.168;4.124;2023-11-21T11:57:37;7.73;;;3.70;;
19535;SDS011;9913;51.168;4.124;2023-11-21T12:00:11;6.93;;;4.60;;
19535;SDS011;9913;51.168;4.124;2023-11-21T12:02:46;6.73;;;4.33;;
19535;SDS011;9913;51.168;4.124;2023-11-21T12:05:15;5.43;;;4.77;;
19535;SDS011;9913;51.168;4.124;2023-11-21T12:07:46;6.13;;;4.23;;
19535;SDS011;9913;51.168;4.124;2023-11-21T12:10:16;8.63;;;4.13;;
19535;SDS011;9913;51.168;4.124;2023-11-21T12:12:46;7.07;;;4.50;;
19535;SDS011;9913;51.168;4.124;2023-11-21T12:15:17;6.80;;;4.83;;
19535;SDS011;9913;51.168;4.124;2023-11-21T12:17:46;8.27;;;5.17;;
19535;SDS011;9913;51.168;4.124;2023-11-21T12:20:18;8.90;;;5.83;;
19535;SDS011;9913;51.168;4.124;2023-11-21T12:22:47;7.27;;;6.07;;
19535;SDS011;9913;51.168;4.124;2023-11-21T12:25:16;13.23;;;7.20;;
19535;SDS011;9913;51.168;4.124;2023-11-21T12:27:46;13.03;;;8.70;;
19535;SDS011;9913;51.168;4.124;2023-11-21T12:30:18;13.60;;;8.87;;
19535;SDS011;9913;51.168;4.124;2023-11-21T12:32:49;13.10;;;9.00;;
19535;SDS011;9913;51.168;4.124;2023-11-21T12:35:19;15.77;;;10.70;;
19535;SDS011;9913;51.168;4.124;2023-11-21T12:37:49;13.47;;;9.70;;
19535;SDS011;9913;51.168;4.124;2023-11-21T12:40:20;14.03;;;10.23;;
19535;SDS011;9913;51.168;4.124;2023-11-21T12:42:51;17.07;;;11.90;;
19535;SDS011;9913;51.168;4.124;2023-11-21T12:45:22;16.00;;;10.50;;
19535;SDS011;9913;51.168;4.124;2023-11-21T12:47:54;17.53;;;10.90;;
19535;SDS011;9913;51.168;4.124;2023-11-21T12:50:28;15.17;;;10.37;;
19535;SDS011;9913;51.168;4.124;2023-11-21T12:52:59;15.97;;;9.97;;
19535;SDS011;9913;51.168;4.124;2023-11-21T12:55:29;12.57;;;9.10;;
19535;SDS011;9913;51.168;4.124;2023-11-21T12:58:00;13.47;;;8.87;;
19535;SDS011;9913;51.168;4.124;2023-11-21T13:00:38;16.80;;;10.67;;
19535;SDS011;9913;51.168;4.124;2023-11-21T13:03:10;20.03;;;10.03;;
19535;SDS011;9913;51.168;4.124;2023-11-21T13:05:44;10.33;;;7.47;;
19535;SDS011;9913;51.168;4.124;2023-11-21T13:08:19;15.53;;;9.13;;
19535;SDS011;9913;51.168;4.124;2023-11-21T13:10:50;12.83;;;8.03;;
19535;SDS011;9913;51.168;4.124;2023-11-21T13:13:21;11.00;;;7.60;;
19535;SDS011;9913;51.168;4.124;2023-11-21T13:15:53;12.07;;;7.27;;
19535;SDS011;9913;51.168;4.124;2023-11-21T13:18:23;11.23;;;7.20;;
19535;SDS011;9913;51.168;4.124;2023-11-21T13:20:53;11.10;;;7.57;;
19535;SDS011;9913;51.168;4.124;2023-11-21T13:23:23;10.70;;;7.27;;
19535;SDS011;9913;51.168;4.124;2023-11-21T13:25:52;8.63;;;5.57;;
19535;SDS011;9913;51.168;4.124;2023-11-21T13:28:30;8.50;;;5.23;;
19535;SDS011;9913;51.168;4.124;2023-11-21T13:31:02;10.17;;;6.53;;
19535;SDS011;9913;51.168;4.124;2023-11-21T13:33:37;7.47;;;5.03;;
19535;SDS011;9913;51.168;4.124;2023-11-21T13:36:08;8.50;;;4.63;;
19535;SDS011;9913;51.168;4.124;2023-11-21T13:38:37;7.93;;;4.90;;
19535;SDS011;9913;51.168;4.124;2023-11-21T13:41:10;6.30;;;4.47;;
19535;SDS011;9913;51.168;4.124;2023-11-21T13:43:41;9.40;;;4.43;;
19535;SDS011;9913;51.168;4.124;2023-11-21T13:46:16;6.27;;;4.70;;
19535;SDS011;9913;51.168;4.124;2023-11-21T13:48:49;7.80;;;4.70;;
19535;SDS011;9913;51.168;4.124;2023-11-21T13:51:23;9.20;;;5.10;;
19535;SDS011;9913;51.168;4.124;2023-11-21T13:54:03;7.30;;;4.90;;
19535;SDS011;9913;51.168;4.124;2023-11-21T13:56:36;8.77;;;5.03;;
19535;SDS011;9913;51.168;4.124;2023-11-21T13:59:06;8.10;;;5.03;;
19535;SDS011;9913;51.168;4.124;2023-11-21T14:01:44;10.30;;;5.23;;
19535;SDS011;9913;51.168;4.124;2023-11-21T14:04:22;7.47;;;4.90;;
19535;SDS011;9913;51.168;4.124;2023-11-21T14:07:05;6.57;;;4.20;;
19535;SDS011;9913;51.168;4.124;2023-11-21T14:09:49;5.90;;;3.90;;
19535;SDS011;9913;51.168;4.124;2023-11-21T14:12:19;6.80;;;3.93;;
19535;SDS011;9913;51.168;4.124;2023-11-21T14:14:48;6.47;;;4.13;;
19535;SDS011;9913;51.168;4.124;2023-11-21T14:17:17;8.20;;;4.63;;
19535;SDS011;9913;51.168;4.124;2023-11-21T14:19:49;6.97;;;4.50;;
19535;SDS011;9913;51.168;4.124;2023-11-21T14:22:18;8.43;;;4.70;;
19535;SDS011;9913;51.168;4.124;2023-11-21T14:24:47;6.60;;;4.50;;
19535;SDS011;9913;51.168;4.124;2023-11-21T14:27:17;7.33;;;4.70;;
19535;SDS011;9913;51.168;4.124;2023-11-21T14:29:45;6.97;;;4.27;;
19535;SDS011;9913;51.168;4.124;2023-11-21T14:32:15;6.27;;;4.40;;
19535;SDS011;9913;51.168;4.124;2023-11-21T14:34:45;5.20;;;3.90;;
19535;SDS011;9913;51.168;4.124;2023-11-21T14:37:15;7.13;;;4.47;;
19535;SDS011;9913;51.168;4.124;2023-11-21T14:39:43;7.77;;;4.30;;
19535;SDS011;9913;51.168;4.124;2023-11-21T14:42:15;7.57;;;4.17;;
19535;SDS011;9913;51.168;4.124;2023-11-21T14:44:42;9.13;;;5.67;;
19535;SDS011;9913;51.168;4.124;2023-11-21T14:47:14;9.53;;;6.93;;
19535;SDS011;9913;51.168;4.124;2023-11-21T14:49:43;7.33;;;4.80;;
19535;SDS011;9913;51.168;4.124;2023-11-21T14:52:20;8.73;;;5.20;;
19535;SDS011;9913;51.168;4.124;2023-11-21T14:55:00;8.83;;;6.50;;
19535;SDS011;9913;51.168;4.124;2023-11-21T14:57:48;7.90;;;5.87;;
19535;SDS011;9913;51.168;4.124;2023-11-21T15:00:17;9.57;;;6.77;;